createdAt,value
2023-06-17T00:01:55.654Z,7.20
2023-06-17T00:04:26.230Z,7.33
2023-06-17T00:06:55.570Z,7.00
2023-06-17T00:09:24.633Z,7.03
2023-06-17T00:11:53.899Z,8.23
2023-06-17T00:14:23.838Z,9.47
2023-06-17T00:16:52.978Z,9.50
2023-06-17T00:19:23.960Z,8.50
2023-06-17T00:22:25.987Z,6.40
2023-06-17T00:24:55.401Z,7.57
2023-06-17T00:27:24.399Z,6.77
2023-06-17T00:29:53.892Z,7.47
2023-06-17T00:32:23.174Z,8.17
2023-06-17T00:34:52.296Z,7.53
2023-06-17T00:37:21.434Z,8.33
2023-06-17T00:39:51.988Z,7.17
2023-06-17T00:42:21.591Z,7.77
2023-06-17T00:44:50.705Z,7.87
2023-06-17T00:47:20.173Z,8.07
2023-06-17T00:49:50.755Z,7.10
2023-06-17T00:52:35.483Z,7.87
2023-06-17T00:55:12.340Z,7.67
2023-06-17T00:57:42.069Z,7.87
2023-06-17T01:00:13.021Z,7.50
2023-06-17T01:02:46.282Z,8.77
2023-06-17T01:05:19.587Z,8.27
2023-06-17T01:08:04.172Z,7.93
2023-06-17T01:10:41.515Z,6.97
2023-06-17T01:13:11.753Z,8.83
2023-06-17T01:15:41.468Z,8.33
2023-06-17T01:18:12.697Z,7.50
2023-06-17T01:20:43.555Z,8.40
2023-06-17T01:23:15.494Z,8.60
2023-06-17T01:25:50.877Z,8.97
2023-06-17T01:28:21.323Z,6.60
2023-06-17T01:30:56.639Z,8.90
2023-06-17T01:33:27.234Z,7.80
2023-06-17T01:36:01.762Z,7.70
2023-06-17T01:38:37.104Z,7.70
2023-06-17T01:41:17.587Z,8.27
2023-06-17T01:43:47.561Z,6.77
2023-06-17T01:46:18.114Z,8.30
2023-06-17T01:48:47.385Z,9.80
2023-06-17T01:51:16.632Z,7.13
2023-06-17T01:53:46.004Z,9.13
2023-06-17T01:56:17.051Z,8.03
2023-06-17T01:58:46.463Z,8.07
2023-06-17T02:01:15.733Z,9.30
2023-06-17T02:03:45.485Z,8.93
2023-06-17T02:06:14.593Z,7.70
2023-06-17T02:08:45.291Z,7.67
2023-06-17T02:11:16.062Z,7.67
2023-06-17T02:13:45.503Z,8.30
2023-06-17T02:16:14.625Z,7.17
2023-06-17T02:18:45.318Z,8.70
2023-06-17T02:21:14.426Z,8.50
2023-06-17T02:23:49.696Z,9.30
2023-06-17T02:26:20.853Z,10.13
2023-06-17T02:28:51.881Z,9.07
2023-06-17T02:31:21.026Z,8.53
2023-06-17T02:33:50.176Z,8.97
2023-06-17T02:36:20.373Z,8.80
2023-06-17T02:38:51.405Z,8.60
2023-06-17T02:41:22.238Z,9.70
2023-06-17T02:43:51.397Z,9.23
2023-06-17T02:46:20.604Z,9.30
2023-06-17T02:48:49.637Z,9.30
2023-06-17T02:51:18.781Z,8.47
2023-06-17T02:53:48.354Z,8.13
2023-06-17T02:56:22.322Z,10.43
2023-06-17T02:58:51.862Z,9.00
2023-06-17T03:01:22.792Z,9.30
2023-06-17T03:03:56.369Z,9.60
2023-06-17T03:06:26.231Z,10.70
2023-06-17T03:08:56.258Z,10.87
2023-06-17T03:11:27.052Z,10.13
2023-06-17T03:13:56.319Z,10.67
2023-06-17T03:16:35.254Z,9.60
2023-06-17T03:19:05.497Z,9.40
2023-06-17T03:21:42.065Z,9.03
2023-06-17T03:24:12.292Z,11.33
2023-06-17T03:26:42.992Z,10.43
2023-06-17T03:29:12.283Z,10.63
2023-06-17T03:31:41.401Z,9.93
2023-06-17T03:34:11.635Z,7.27
2023-06-17T03:36:41.173Z,10.50
2023-06-17T03:39:10.572Z,9.73
2023-06-17T03:41:41.566Z,10.60
2023-06-17T03:44:10.818Z,10.33
2023-06-17T03:46:40.863Z,8.50
2023-06-17T03:49:09.969Z,10.70
2023-06-17T03:51:39.351Z,11.97
2023-06-17T03:54:08.563Z,12.17
2023-06-17T03:56:39.026Z,10.80
2023-06-17T03:59:10.125Z,11.60
2023-06-17T04:01:39.521Z,12.30
2023-06-17T04:04:08.778Z,11.80
2023-06-17T04:06:38.210Z,10.07
2023-06-17T04:09:07.491Z,12.20
2023-06-17T04:11:37.241Z,10.23
2023-06-17T04:14:06.530Z,12.67
2023-06-17T04:16:37.434Z,11.97
2023-06-17T04:19:07.030Z,12.30
2023-06-17T04:21:39.992Z,14.47
2023-06-17T04:24:09.213Z,14.53
2023-06-17T04:26:39.317Z,14.77
2023-06-17T04:29:09.716Z,14.50
2023-06-17T04:31:41.949Z,15.90
2023-06-17T04:34:13.862Z,17.07
2023-06-17T04:36:43.562Z,17.63
2023-06-17T04:39:13.639Z,15.97
2023-06-17T04:41:47.487Z,16.17
2023-06-17T04:44:17.114Z,16.87
2023-06-17T04:46:49.549Z,15.90
2023-06-17T04:49:19.093Z,16.20
2023-06-17T04:51:49.836Z,16.10
2023-06-17T04:54:19.634Z,15.40
2023-06-17T04:56:49.842Z,16.33
2023-06-17T04:59:20.287Z,16.50
2023-06-17T05:01:51.591Z,18.17
2023-06-17T05:04:20.716Z,18.17
2023-06-17T05:06:49.729Z,14.80
2023-06-17T05:09:19.801Z,16.20
2023-06-17T05:11:49.092Z,18.37
2023-06-17T05:14:18.390Z,13.90
2023-06-17T05:16:47.566Z,16.70
2023-06-17T05:19:18.270Z,15.53
2023-06-17T05:21:48.309Z,16.63
2023-06-17T05:24:21.066Z,17.20
2023-06-17T05:26:50.301Z,15.67
2023-06-17T05:29:19.882Z,15.10
2023-06-17T05:31:55.288Z,18.00
2023-06-17T05:34:26.660Z,16.97
2023-06-17T05:36:55.964Z,18.63
2023-06-17T05:39:25.054Z,18.30
2023-06-17T05:41:54.214Z,17.37
2023-06-17T05:44:23.251Z,17.40
2023-06-17T05:46:53.786Z,16.23
2023-06-17T05:49:24.332Z,15.50
2023-06-17T05:51:54.113Z,18.47
2023-06-17T05:54:23.466Z,17.17
2023-06-17T05:56:52.762Z,16.07
2023-06-17T05:59:22.740Z,18.17
2023-06-17T06:01:52.951Z,15.30
2023-06-17T06:04:22.399Z,16.40
2023-06-17T06:06:52.897Z,17.10
2023-06-17T06:09:22.046Z,16.70
2023-06-17T06:11:51.461Z,17.20
2023-06-17T06:14:20.870Z,16.83
2023-06-17T06:16:51.381Z,17.53
2023-06-17T06:19:20.560Z,16.20
2023-06-17T06:21:51.218Z,15.57
2023-06-17T06:24:20.605Z,16.50
2023-06-17T06:26:49.750Z,16.00
2023-06-17T06:29:19.020Z,16.77
2023-06-17T06:31:48.344Z,15.93
2023-06-17T06:34:20.040Z,15.77
2023-06-17T06:36:49.227Z,16.30
2023-06-17T06:39:19.963Z,18.17
2023-06-17T06:41:49.871Z,16.97
2023-06-17T06:44:31.504Z,16.50
2023-06-17T06:47:00.807Z,16.63
2023-06-17T06:49:29.890Z,16.23
2023-06-17T06:51:58.973Z,17.07
2023-06-17T06:54:29.532Z,15.63
2023-06-17T06:56:58.662Z,16.30
2023-06-17T06:59:29.519Z,16.80
2023-06-17T07:01:58.635Z,17.50
2023-06-17T07:04:28.285Z,16.60
2023-06-17T07:07:00.890Z,17.53
2023-06-17T07:09:36.128Z,18.77
2023-06-17T07:12:06.259Z,18.27
2023-06-17T07:14:38.622Z,16.60
2023-06-17T07:17:08.967Z,18.40
2023-06-17T07:19:38.256Z,17.07
2023-06-17T07:22:11.023Z,18.40
2023-06-17T07:24:41.691Z,18.80
2023-06-17T07:27:11.763Z,17.83
2023-06-17T07:29:41.120Z,17.90
2023-06-17T07:32:10.535Z,17.97
2023-06-17T07:34:39.724Z,17.00
2023-06-17T07:37:08.770Z,19.13
2023-06-17T07:39:38.000Z,18.10
2023-06-17T07:42:09.005Z,17.77
2023-06-17T07:45:05.064Z,18.37
2023-06-17T07:47:34.223Z,20.03
2023-06-17T07:50:03.252Z,18.30
2023-06-17T07:52:36.111Z,17.70
2023-06-17T07:55:08.228Z,21.40
2023-06-17T07:57:39.184Z,19.23
2023-06-17T08:00:14.040Z,17.20
2023-06-17T08:02:46.301Z,16.70
2023-06-17T08:05:15.577Z,16.80
2023-06-17T08:07:44.632Z,18.70
2023-06-17T08:10:13.806Z,16.17
2023-06-17T08:12:45.575Z,15.80
2023-06-17T08:15:14.759Z,15.50
2023-06-17T08:17:43.869Z,16.17
2023-06-17T08:20:15.261Z,16.17
2023-06-17T08:22:44.400Z,17.13
2023-06-17T08:25:13.430Z,16.50
2023-06-17T08:27:48.759Z,17.77
2023-06-17T08:30:18.630Z,16.00
2023-06-17T08:32:48.472Z,16.50
2023-06-17T08:35:17.875Z,16.43
2023-06-17T08:37:47.079Z,17.30
2023-06-17T08:40:17.191Z,15.00
2023-06-17T08:42:50.125Z,16.20
2023-06-17T08:45:19.604Z,16.73
2023-06-17T08:47:48.724Z,16.53
2023-06-17T08:50:18.623Z,16.90
2023-06-17T08:52:49.505Z,16.50
2023-06-17T08:55:19.092Z,16.60
2023-06-17T08:57:52.252Z,15.10
2023-06-17T09:00:21.974Z,16.03
2023-06-17T09:02:53.016Z,16.37
2023-06-17T09:05:22.213Z,17.13
2023-06-17T09:07:51.497Z,16.70
2023-06-17T09:10:22.345Z,16.80
2023-06-17T09:12:53.506Z,16.53
2023-06-17T09:15:22.873Z,16.63
2023-06-17T09:17:53.660Z,16.97
2023-06-17T09:20:23.577Z,16.43
2023-06-17T09:22:52.871Z,15.93
2023-06-17T09:25:23.825Z,16.47
2023-06-17T09:30:27.419Z,16.47
2023-06-17T09:32:57.032Z,16.90
2023-06-17T09:35:26.242Z,17.23
2023-06-17T09:38:03.056Z,15.60
2023-06-17T09:40:35.768Z,14.63
2023-06-17T09:43:25.850Z,16.20
2023-06-17T09:46:02.340Z,15.00
2023-06-17T09:48:35.028Z,16.40
2023-06-17T09:51:06.702Z,15.80
2023-06-17T09:53:38.502Z,14.47
2023-06-17T09:56:12.518Z,15.03
2023-06-17T09:58:44.986Z,15.13
2023-06-17T10:01:15.200Z,16.90
2023-06-17T10:03:44.558Z,15.07
2023-06-17T10:06:15.076Z,15.17
2023-06-17T10:08:46.262Z,14.93
2023-06-17T10:11:17.364Z,14.20
2023-06-17T10:13:55.636Z,13.37
2023-06-17T10:16:27.752Z,12.20
2023-06-17T10:19:00.023Z,12.27
2023-06-17T10:21:31.587Z,13.93
2023-06-17T10:24:03.083Z,12.63
2023-06-17T10:26:33.307Z,13.90
2023-06-17T10:29:08.120Z,12.57
2023-06-17T10:31:41.196Z,11.43
2023-06-17T10:34:15.845Z,12.47
2023-06-17T10:36:49.676Z,14.03
2023-06-17T10:39:18.953Z,11.50
2023-06-17T10:41:59.177Z,13.53
2023-06-17T10:44:42.056Z,13.30
2023-06-17T10:47:24.389Z,13.70
2023-06-17T10:49:56.469Z,11.70
2023-06-17T10:52:25.819Z,13.27
2023-06-17T10:54:56.792Z,11.83
2023-06-17T10:57:34.179Z,10.83
2023-06-17T11:00:11.557Z,11.90
2023-06-17T11:02:41.568Z,13.17
2023-06-17T11:05:11.606Z,14.93
2023-06-17T11:07:40.681Z,12.30
2023-06-17T11:10:10.520Z,13.40
2023-06-17T11:12:40.782Z,13.40
2023-06-17T11:15:11.840Z,13.20
2023-06-17T11:17:40.865Z,11.50
2023-06-17T11:20:13.193Z,11.60
2023-06-17T11:22:42.423Z,13.20
2023-06-17T11:25:13.071Z,14.00
2023-06-17T11:27:42.687Z,15.80
2023-06-17T11:30:15.640Z,14.57
2023-06-17T11:32:45.138Z,16.17
2023-06-17T11:35:15.120Z,15.07
2023-06-17T11:37:44.552Z,15.60
2023-06-17T11:40:14.902Z,13.70
2023-06-17T11:42:44.742Z,13.33
2023-06-17T11:45:16.427Z,13.00
2023-06-17T11:47:45.833Z,12.40
2023-06-17T11:50:15.457Z,10.97
2023-06-17T11:52:54.318Z,10.67
2023-06-17T11:55:30.698Z,9.83
2023-06-17T11:58:00.203Z,10.10
2023-06-17T12:00:31.288Z,9.00
2023-06-17T12:03:01.168Z,7.67
2023-06-17T12:05:30.731Z,7.27
2023-06-17T12:08:02.100Z,6.93
2023-06-17T12:10:31.223Z,6.37
2023-06-17T12:13:00.810Z,7.10
2023-06-17T12:15:36.893Z,6.50
2023-06-17T12:18:14.462Z,4.77
2023-06-17T12:20:51.694Z,6.03
2023-06-17T12:23:21.223Z,6.43
2023-06-17T12:25:50.532Z,7.00
2023-06-17T12:28:23.850Z,6.80
2023-06-17T12:30:54.465Z,6.93
2023-06-17T12:33:23.500Z,6.90
2023-06-17T12:35:53.699Z,7.67
2023-06-17T12:38:26.952Z,8.13
2023-06-17T12:40:56.160Z,8.67
2023-06-17T12:43:25.131Z,8.00
2023-06-17T12:45:55.660Z,8.63
2023-06-17T12:48:25.725Z,8.20
2023-06-17T12:50:54.779Z,9.10
2023-06-17T12:53:24.435Z,8.30
2023-06-17T12:55:56.471Z,7.97
2023-06-17T12:58:26.397Z,9.00
2023-06-17T13:00:57.488Z,7.80
2023-06-17T13:03:26.635Z,8.80
2023-06-17T13:05:55.660Z,7.60
2023-06-17T13:08:24.877Z,6.87
2023-06-17T13:10:53.873Z,8.47
2023-06-17T13:13:23.133Z,8.40
2023-06-17T13:15:53.670Z,7.10
2023-06-17T13:18:24.242Z,7.40
2023-06-17T13:20:53.720Z,8.50
2023-06-17T13:23:22.781Z,9.83
2023-06-17T13:25:51.888Z,8.00
2023-06-17T13:28:21.823Z,7.53
2023-06-17T13:30:52.266Z,9.33
2023-06-17T13:33:21.392Z,9.83
2023-06-17T13:35:52.397Z,9.70
2023-06-17T13:38:21.751Z,8.30
2023-06-17T13:40:50.798Z,9.77
2023-06-17T13:43:19.998Z,10.77
2023-06-17T13:45:49.650Z,10.07
2023-06-17T13:48:20.353Z,9.23
2023-06-17T13:50:51.122Z,8.83
2023-06-17T13:53:20.226Z,9.90
2023-06-17T13:55:49.807Z,8.90
2023-06-17T13:58:18.934Z,8.50
2023-06-17T14:00:48.029Z,9.83
2023-06-17T14:03:18.384Z,7.30
2023-06-17T14:05:50.583Z,7.63
2023-06-17T14:08:22.148Z,6.70
2023-06-17T14:10:52.800Z,7.03
2023-06-17T14:13:21.876Z,6.40
2023-06-17T14:15:51.096Z,5.63
2023-06-17T14:18:20.333Z,6.60
2023-06-17T14:20:50.830Z,6.40
2023-06-17T14:23:19.915Z,6.30
2023-06-17T14:25:48.913Z,6.20
2023-06-17T14:28:19.790Z,5.43
2023-06-17T14:30:49.715Z,5.87
2023-06-17T14:33:18.780Z,5.43
2023-06-17T14:35:47.842Z,6.23
2023-06-17T14:38:18.345Z,6.27
2023-06-17T14:40:47.468Z,7.13
2023-06-17T14:43:16.499Z,6.30
2023-06-17T14:45:45.590Z,7.20
2023-06-17T14:48:14.827Z,6.83
2023-06-17T14:50:43.863Z,7.70
2023-06-17T14:53:12.923Z,7.67
2023-06-17T14:55:43.612Z,6.80
2023-06-17T14:58:12.921Z,8.07
2023-06-17T15:00:42.464Z,8.00
2023-06-17T15:03:11.830Z,7.90
2023-06-17T15:05:40.943Z,7.70
2023-06-17T15:08:11.092Z,6.70
2023-06-17T15:10:40.238Z,6.70
2023-06-17T15:13:10.890Z,8.13
2023-06-17T15:15:45.367Z,8.87
2023-06-17T15:18:15.003Z,7.90
2023-06-17T15:20:44.082Z,7.83
2023-06-17T15:23:13.158Z,7.87
2023-06-17T15:25:42.177Z,8.57
2023-06-17T15:28:12.665Z,10.87
2023-06-17T15:30:41.890Z,8.23
2023-06-17T15:33:10.936Z,8.90
2023-06-17T15:35:40.158Z,7.97
2023-06-17T15:38:09.322Z,7.00
2023-06-17T15:40:38.617Z,9.23
2023-06-17T15:43:07.764Z,6.20
2023-06-17T15:45:38.277Z,6.23
2023-06-17T15:48:07.832Z,6.77
2023-06-17T15:50:38.011Z,7.30
2023-06-17T15:53:07.140Z,6.67
2023-06-17T15:55:37.323Z,7.37
2023-06-17T15:58:06.657Z,6.63
2023-06-17T16:00:37.098Z,7.07
2023-06-17T16:03:06.564Z,6.73
2023-06-17T16:05:35.655Z,7.63
2023-06-17T16:08:04.678Z,7.10
2023-06-17T16:10:33.732Z,7.70
2023-06-17T16:13:02.721Z,6.80
2023-06-17T16:15:32.539Z,6.73
2023-06-17T16:18:03.054Z,6.60
2023-06-17T16:20:32.113Z,7.80
2023-06-17T16:23:01.065Z,7.47
2023-06-17T16:25:40.903Z,7.40
2023-06-17T16:28:19.211Z,7.90
2023-06-17T16:30:48.191Z,7.70
2023-06-17T16:33:19.004Z,8.67
2023-06-17T16:35:48.065Z,7.83
2023-06-17T16:38:17.094Z,7.40
2023-06-17T16:40:46.293Z,7.10
2023-06-17T16:43:15.668Z,7.40
2023-06-17T16:45:44.697Z,7.27
2023-06-17T16:48:13.890Z,7.57
2023-06-17T16:50:44.386Z,6.30
2023-06-17T16:53:17.699Z,6.90
2023-06-17T16:55:47.577Z,6.70
2023-06-17T16:58:16.668Z,7.20
2023-06-17T17:00:46.053Z,6.87
2023-06-17T17:03:15.210Z,6.47
2023-06-17T17:05:45.894Z,7.40
2023-06-17T17:08:16.003Z,6.03
2023-06-17T17:10:45.172Z,6.53
2023-06-17T17:13:14.244Z,6.97
2023-06-17T17:15:43.301Z,7.37
2023-06-17T17:18:12.342Z,6.53
2023-06-17T17:20:41.489Z,6.70
2023-06-17T17:23:12.309Z,6.73
2023-06-17T17:25:41.619Z,5.93
2023-06-17T17:28:10.577Z,6.97
2023-06-17T17:30:40.421Z,6.40
2023-06-17T17:33:09.754Z,7.00
2023-06-17T17:35:38.835Z,6.80
2023-06-17T17:38:08.638Z,6.97
2023-06-17T17:40:39.160Z,6.40
2023-06-17T17:43:08.353Z,7.93
2023-06-17T17:45:37.418Z,5.90
2023-06-17T17:48:06.962Z,7.00
2023-06-17T17:50:36.201Z,7.60
2023-06-17T17:53:05.243Z,6.47
2023-06-17T17:55:34.288Z,7.97
2023-06-17T17:58:04.883Z,7.53
2023-06-17T18:00:34.072Z,6.70
2023-06-17T18:03:03.254Z,6.80
2023-06-17T18:05:32.609Z,7.50
2023-06-17T18:08:01.724Z,7.50
2023-06-17T18:10:30.758Z,7.87
2023-06-17T18:12:59.835Z,7.80
2023-06-17T18:15:30.430Z,7.37
2023-06-17T18:17:59.609Z,7.80
2023-06-17T18:20:28.698Z,9.07
2023-06-17T18:22:57.783Z,7.77
2023-06-17T18:25:26.826Z,7.83
2023-06-17T18:27:56.025Z,7.00
2023-06-17T18:30:25.177Z,7.93
2023-06-17T18:32:55.565Z,8.30
2023-06-17T18:35:24.845Z,8.40
2023-06-17T18:37:53.841Z,8.13
2023-06-17T18:40:23.086Z,8.50
2023-06-17T18:42:52.354Z,8.03
2023-06-17T18:45:21.528Z,8.37
2023-06-17T18:47:50.764Z,8.90
2023-06-17T18:50:21.657Z,8.10
2023-06-17T18:52:51.291Z,8.77
2023-06-17T18:55:20.416Z,9.30
2023-06-17T18:57:49.586Z,9.20
2023-06-17T19:00:19.315Z,8.87
2023-06-17T19:03:13.396Z,8.23
2023-06-17T19:05:44.324Z,9.80
2023-06-17T19:08:13.561Z,9.37
2023-06-17T19:10:42.580Z,9.47
2023-06-17T19:13:11.701Z,10.10
2023-06-17T19:15:41.038Z,10.30
2023-06-17T19:18:10.179Z,9.80
2023-06-17T19:20:40.023Z,10.40
2023-06-17T19:23:11.146Z,9.53
2023-06-17T19:25:40.228Z,9.57
2023-06-17T19:28:09.339Z,9.17
2023-06-17T19:30:38.337Z,9.30
2023-06-17T19:33:07.598Z,10.80
2023-06-17T19:35:36.718Z,9.57
2023-06-17T19:38:05.852Z,10.57
2023-06-17T19:40:36.409Z,11.80
2023-06-17T19:43:06.033Z,9.83
2023-06-17T19:45:37.151Z,10.67
2023-06-17T19:48:06.873Z,11.63
2023-06-17T19:50:37.376Z,10.90
2023-06-17T19:53:06.914Z,12.00
2023-06-17T19:55:38.541Z,12.73
2023-06-17T19:58:07.691Z,12.33
2023-06-17T20:00:38.398Z,12.63
2023-06-17T20:03:07.829Z,12.37
2023-06-17T20:05:36.903Z,11.80
2023-06-17T20:08:06.274Z,13.60
2023-06-17T20:10:38.744Z,12.77
2023-06-17T20:13:08.096Z,12.43
2023-06-17T20:15:38.193Z,12.50
2023-06-17T20:18:08.505Z,14.13
2023-06-17T20:20:37.605Z,13.73
2023-06-17T20:23:06.760Z,15.10
2023-06-17T20:25:37.269Z,16.00
2023-06-17T20:28:06.630Z,15.57
2023-06-17T20:30:35.842Z,14.07
2023-06-17T20:33:04.878Z,16.03
2023-06-17T20:35:34.014Z,16.20
2023-06-17T20:38:03.100Z,16.17
2023-06-17T20:40:32.416Z,14.67
2023-06-17T20:43:04.912Z,14.07
2023-06-17T20:45:34.018Z,15.33
2023-06-17T20:48:03.080Z,16.73
2023-06-17T20:50:32.472Z,16.23
2023-06-17T20:53:01.479Z,18.47
2023-06-17T20:55:31.796Z,16.90
2023-06-17T20:58:00.954Z,19.03
2023-06-17T21:00:31.470Z,20.10
2023-06-17T21:03:01.151Z,18.93
2023-06-17T21:05:30.232Z,19.90
2023-06-17T21:08:01.443Z,19.03
2023-06-17T21:10:30.969Z,19.20
2023-06-17T21:13:00.247Z,17.83
2023-06-17T21:15:30.584Z,16.30
2023-06-17T21:18:01.922Z,19.37
2023-06-17T21:20:32.477Z,19.30
2023-06-17T21:23:02.147Z,20.17
2023-06-17T21:25:31.194Z,21.47
2023-06-17T21:28:00.155Z,20.57
2023-06-17T21:30:30.757Z,24.47
2023-06-17T21:33:00.003Z,25.30
2023-06-17T21:35:29.058Z,23.80
2023-06-17T21:37:59.254Z,26.20
2023-06-17T21:40:28.400Z,24.17
2023-06-17T21:42:57.741Z,23.10
2023-06-17T21:45:26.727Z,22.83
2023-06-17T21:47:57.295Z,23.20
2023-06-17T21:50:27.216Z,23.70
2023-06-17T21:52:57.395Z,26.93
2023-06-17T21:55:26.668Z,26.70
2023-06-17T21:57:55.834Z,25.60
2023-06-17T22:00:25.040Z,25.00
2023-06-17T22:02:54.053Z,24.50
2023-06-17T22:05:24.726Z,25.70
2023-06-17T22:07:54.207Z,24.57
2023-06-17T22:10:23.781Z,24.57
2023-06-17T22:12:53.012Z,24.70
2023-06-17T22:15:22.089Z,25.17
2023-06-17T22:17:51.469Z,24.30
2023-06-17T22:20:21.105Z,25.10
2023-06-17T22:22:51.902Z,24.97
2023-06-17T22:25:21.068Z,23.50
2023-06-17T22:27:50.424Z,23.50
2023-06-17T22:30:19.788Z,25.60
2023-06-17T22:32:49.179Z,27.90
2023-06-17T22:35:18.425Z,26.23
2023-06-17T22:37:47.595Z,29.73
2023-06-17T22:40:18.128Z,25.97
2023-06-17T22:42:47.225Z,27.20
2023-06-17T22:45:16.544Z,24.10
2023-06-17T22:47:45.860Z,25.80
2023-06-17T22:50:14.885Z,23.67
2023-06-17T22:52:44.003Z,26.17
2023-06-17T22:55:12.995Z,26.00
2023-06-17T22:57:43.616Z,27.27
2023-06-17T23:00:14.411Z,27.40
2023-06-17T23:02:43.581Z,25.33
2023-06-17T23:05:12.689Z,26.37
2023-06-17T23:07:41.885Z,25.77
2023-06-17T23:10:11.374Z,26.53
2023-06-17T23:12:40.534Z,27.33
2023-06-17T23:15:11.840Z,26.23
2023-06-17T23:17:41.062Z,22.20
2023-06-17T23:20:12.019Z,23.10
2023-06-17T23:22:41.690Z,25.20
2023-06-17T23:25:11.313Z,27.50
2023-06-17T23:27:41.822Z,26.03
2023-06-17T23:30:14.816Z,26.10
2023-06-17T23:32:44.380Z,24.30
2023-06-17T23:35:13.467Z,25.40
2023-06-17T23:37:43.028Z,24.93
2023-06-17T23:40:12.710Z,25.90
2023-06-17T23:42:41.793Z,26.47
2023-06-17T23:45:15.443Z,26.13
2023-06-17T23:47:44.827Z,25.80
2023-06-17T23:50:13.921Z,25.80
2023-06-17T23:52:43.018Z,28.60
2023-06-17T23:55:12.275Z,26.50
2023-06-17T23:57:41.494Z,28.70
